Time;durP1;ratioP1;P1;durP2;ratioP2;P2;SDS_P1;SDS_P2;PMS_P1;PMS_P2;Temp;Humidity;BMP_temperature;BMP_pressure;BME280_temperature;BME280_humidity;BME280_pressure;Samples;Min_cycle;Max_cycle;Signal;HPM_P1;HPM_P2
2022/01/19 00:00:53;;;;;;;23.25;15.18;;;9.30;91.60;;;;;;4958931;28;20026;-78
2022/01/19 00:03:18;;;;;;;22.25;14.27;;;9.30;91.60;;;;;;4959000;28;20031;-77
2022/01/19 00:05:44;;;;;;;23.35;15.20;;;9.30;91.60;;;;;;4959325;28;20085;-78
2022/01/19 00:08:16;;;;;;;22.33;14.93;;;9.30;91.70;;;;;;4959179;28;20069;-77
2022/01/19 00:10:42;;;;;;;24.00;16.42;;;9.30;91.70;;;;;;4958805;28;20038;-77
2022/01/19 00:13:07;;;;;;;23.02;14.88;;;9.30;91.70;;;;;;4976088;28;20035;-77
2022/01/19 00:15:33;;;;;;;22.67;14.90;;;9.30;91.70;;;;;;4959204;28;20058;-77
2022/01/19 00:17:59;;;;;;;22.27;14.93;;;9.30;91.70;;;;;;4958882;28;20023;-78
2022/01/19 00:20:27;;;;;;;23.35;16.17;;;9.30;91.70;;;;;;4958720;28;20031;-77
2022/01/19 00:22:53;;;;;;;25.65;15.57;;;9.30;91.70;;;;;;4958490;28;20410;-78
2022/01/19 00:25:20;;;;;;;22.77;15.23;;;9.30;91.70;;;;;;4957708;28;20038;-77
2022/01/19 00:27:46;;;;;;;23.33;15.68;;;9.30;91.70;;;;;;4958645;28;20054;-77
2022/01/19 00:30:12;;;;;;;24.48;15.60;;;9.30;91.70;;;;;;4958507;28;20486;-78
2022/01/19 00:32:38;;;;;;;22.55;14.68;;;9.30;91.70;;;;;;4975551;28;20565;-77
2022/01/19 00:35:05;;;;;;;25.95;16.27;;;9.30;91.70;;;;;;4958550;28;20117;-77
2022/01/19 00:37:30;;;;;;;23.52;15.98;;;9.30;91.70;;;;;;4975748;28;20029;-77
2022/01/19 00:39:56;;;;;;;23.98;16.05;;;9.30;91.80;;;;;;4975751;28;20030;-77
2022/01/19 00:42:21;;;;;;;25.42;16.25;;;9.30;91.80;;;;;;4975575;28;20143;-77
2022/01/19 00:44:47;;;;;;;27.63;16.73;;;9.30;91.80;;;;;;4958340;28;20379;-77
2022/01/19 00:47:14;;;;;;;27.13;16.95;;;9.30;91.80;;;;;;4958342;28;20097;-77
2022/01/19 00:49:42;;;;;;;24.63;16.55;;;9.30;91.80;;;;;;4957762;28;20445;-77
2022/01/19 00:52:08;;;;;;;24.65;16.70;;;9.30;91.70;;;;;;4975414;28;20026;-77
2022/01/19 00:54:34;;;;;;;28.92;16.42;;;9.30;91.70;;;;;;4975584;28;20018;-78
2022/01/19 00:56:59;;;;;;;24.15;16.48;;;9.30;91.80;;;;;;4975504;28;20023;-77
2022/01/19 00:59:25;;;;;;;25.30;16.58;;;9.30;91.70;;;;;;4974571;28;20414;-77
2022/01/19 01:01:50;;;;;;;25.65;16.42;;;9.30;91.80;;;;;;4974985;28;20026;-77
2022/01/19 01:04:16;;;;;;;27.85;17.40;;;9.30;91.70;;;;;;4958122;28;20493;-77
2022/01/19 01:06:41;;;;;;;25.98;16.77;;;9.30;91.70;;;;;;4957992;28;20178;-78
2022/01/19 01:09:07;;;;;;;25.08;16.58;;;9.30;91.70;;;;;;4957973;28;20055;-77
2022/01/19 01:11:36;;;;;;;24.17;16.38;;;9.30;91.70;;;;;;4974950;28;20027;-79
2022/01/19 01:16:33;;;;;;;24.13;16.00;;;9.30;91.70;;;;;;4975536;28;20489;-79
2022/01/19 01:18:59;;;;;;;25.90;16.33;;;9.30;91.70;;;;;;4957682;28;20501;-76
2022/01/19 01:21:25;;;;;;;25.83;16.83;;;9.30;91.80;;;;;;4957567;28;20035;-76
2022/01/19 01:23:51;;;;;;;24.42;15.68;;;9.30;91.70;;;;;;4957530;28;20402;-76
2022/01/19 01:26:17;;;;;;;24.55;16.60;;;9.30;91.70;;;;;;4957675;28;20034;-77
2022/01/19 01:28:43;;;;;;;23.83;16.05;;;9.30;91.70;;;;;;4974624;28;20394;-78
2022/01/19 01:31:09;;;;;;;26.88;17.10;;;9.30;91.70;;;;;;4957211;28;20023;-77
2022/01/19 01:33:39;;;;;;;24.90;16.40;;;9.30;91.70;;;;;;4957452;28;20046;-76
2022/01/19 01:36:05;;;;;;;27.23;15.63;;;9.30;91.70;;;;;;4974688;28;20034;-77
2022/01/19 01:38:30;;;;;;;26.17;15.43;;;9.10;91.70;;;;;;4974716;28;20019;-77
2022/01/19 01:40:56;;;;;;;25.30;15.38;;;9.30;91.80;;;;;;4974432;28;20409;-77
2022/01/19 01:43:22;;;;;;;24.50;14.93;;;9.30;91.80;;;;;;4957284;28;20031;-77
2022/01/19 01:45:52;;;;;;;25.05;15.48;;;9.30;91.80;;;;;;4957132;28;20034;-77
2022/01/19 01:48:20;;;;;;;25.27;16.23;;;9.30;91.70;;;;;;4957147;28;20061;-77
2022/01/19 01:53:33;;;;;;;23.92;15.32;;;9.30;91.80;;;;;;4974745;28;20409;-77
2022/01/19 01:56:11;;;;;;;25.98;16.20;;;9.30;91.70;;;;;;4957051;28;20027;-77
2022/01/19 01:58:39;;;;;;;25.92;15.55;;;9.30;91.70;;;;;;4974238;28;20030;-77
2022/01/19 02:01:04;;;;;;;22.50;14.57;;;9.30;91.70;;;;;;4956557;28;20029;-77
2022/01/19 02:03:37;;;;;;;25.15;15.52;;;9.30;91.70;;;;;;4974231;28;20023;-77
2022/01/19 02:08:57;;;;;;;25.75;15.07;;;9.30;91.70;;;;;;4974461;28;20034;-77
2022/01/19 02:22:01;;;;;;;22.52;13.55;;;9.30;91.80;;;;;;4974076;28;20081;-77
2022/01/19 02:24:30;;;;;;;23.77;14.07;;;9.30;91.80;;;;;;4956676;28;20030;-78
2022/01/19 02:27:06;;;;;;;23.58;14.45;;;9.30;91.80;;;;;;4973886;28;20027;-77
2022/01/19 02:40:39;;;;;;;22.95;14.40;;;9.20;91.80;;;;;;4973627;28;20088;-76
2022/01/19 02:43:09;;;;;;;22.95;14.38;;;9.30;91.80;;;;;;4956381;28;20109;-79
2022/01/19 02:51:06;;;;;;;23.48;14.52;;;9.20;91.70;;;;;;4977873;28;20085;-79
2022/01/19 02:53:33;;;;;;;23.85;13.48;;;9.30;91.70;;;;;;4960180;28;20023;-77
2022/01/19 02:55:59;;;;;;;22.95;14.10;;;9.30;91.70;;;;;;4960423;28;20508;-78
2022/01/19 02:58:25;;;;;;;22.05;13.43;;;9.30;91.70;;;;;;4977605;28;20031;-77
2022/01/19 03:08:57;;;;;;;21.17;12.52;;;9.20;91.70;;;;;;4958130;28;20063;-77
2022/01/19 03:11:24;;;;;;;22.70;12.40;;;9.30;91.70;;;;;;4974943;28;20022;-77
2022/01/19 03:13:50;;;;;;;22.60;12.93;;;9.20;91.70;;;;;;4960158;28;20054;-77
2022/01/19 03:16:19;;;;;;;22.17;12.95;;;9.20;91.70;;;;;;4977282;28;20035;-77
2022/01/19 03:18:49;;;;;;;21.45;13.60;;;9.30;91.70;;;;;;4960083;28;20019;-77
2022/01/19 03:21:18;;;;;;;22.27;12.82;;;9.30;91.70;;;;;;4976966;28;20027;-78
2022/01/19 03:23:44;;;;;;;20.70;12.82;;;9.20;91.70;;;;;;4977152;28;20047;-77
2022/01/19 03:26:10;;;;;;;20.00;12.50;;;9.30;91.70;;;;;;4977137;28;20026;-77
2022/01/19 03:28:36;;;;;;;19.60;12.45;;;9.20;91.60;;;;;;4977021;28;20038;-77
2022/01/19 03:31:04;;;;;;;22.35;13.18;;;9.30;91.70;;;;;;4959486;28;20529;-76
2022/01/19 03:33:30;;;;;;;20.00;12.00;;;9.20;91.60;;;;;;4959747;28;20037;-77
2022/01/19 03:35:55;;;;;;;21.35;12.48;;;9.30;91.70;;;;;;4959660;28;20027;-77
2022/01/19 03:38:21;;;;;;;22.17;12.18;;;9.30;91.70;;;;;;5020933;23;20047;-76
2022/01/19 03:40:47;;;;;;;23.52;12.30;;;9.30;91.70;;;;;;4958788;28;20516;-75
2022/01/19 03:43:13;;;;;;;22.45;12.18;;;9.20;91.70;;;;;;4959346;28;20059;-74
2022/01/19 03:45:38;;;;;;;20.02;11.23;;;9.20;91.70;;;;;;4959417;28;20031;-76
2022/01/19 03:50:34;;;;;;;25.13;12.40;;;9.20;91.70;;;;;;4976001;28;20031;-76
2022/01/19 03:53:00;;;;;;;18.77;11.65;;;9.20;91.60;;;;;;4976394;28;20101;-75
2022/01/19 03:55:26;;;;;;;18.75;11.93;;;9.30;91.60;;;;;;4976496;28;20037;-75
2022/01/19 03:57:52;;;;;;;20.10;11.13;;;9.20;91.60;;;;;;4959088;28;20069;-75
2022/01/19 04:00:19;;;;;;;19.08;11.95;;;9.30;91.60;;;;;;4958581;28;20058;-75
2022/01/19 04:02:45;;;;;;;20.30;11.43;;;9.20;91.60;;;;;;4958848;28;20022;-75
2022/01/19 04:05:20;;;;;;;19.45;11.32;;;9.20;91.60;;;;;;4976330;28;20037;-76
2022/01/19 04:07:45;;;;;;;21.35;11.85;;;9.20;91.50;;;;;;4958882;28;20030;-76
2022/01/19 04:10:11;;;;;;;19.02;11.60;;;9.20;91.50;;;;;;4958864;28;20803;-75
2022/01/19 04:12:46;;;;;;;20.85;12.02;;;9.20;91.50;;;;;;4958648;28;20035;-76
2022/01/19 04:15:15;;;;;;;19.48;11.73;;;9.20;91.40;;;;;;4959004;28;20027;-75
2022/01/19 04:17:46;;;;;;;19.17;11.50;;;9.20;91.40;;;;;;4958750;28;20057;-76
2022/01/19 04:20:12;;;;;;;21.42;12.25;;;9.20;91.40;;;;;;4976116;28;20026;-75
2022/01/19 04:22:38;;;;;;;19.25;11.15;;;9.20;91.40;;;;;;4975764;28;20035;-75
2022/01/19 04:25:04;;;;;;;18.08;11.73;;;9.20;91.40;;;;;;4976016;28;20085;-77
2022/01/19 04:30:09;;;;;;;19.02;11.98;;;9.20;91.30;;;;;;4976148;28;20027;-75
2022/01/19 04:35:11;;;;;;;20.88;12.02;;;9.20;91.30;;;;;;4976117;28;20109;-75
2022/01/19 04:37:50;;;;;;;19.10;11.75;;;9.20;91.40;;;;;;4958251;28;20035;-76
2022/01/19 04:46:03;;;;;;;18.77;11.23;;;9.20;91.30;;;;;;4975867;28;20089;-76
2022/01/19 05:07:31;;;;;;;17.92;10.07;;;9.20;91.10;;;;;;4968320;28;20521;-75
2022/01/19 05:15:38;;;;;;;14.77;9.25;;;9.20;91.00;;;;;;4953456;29;20070;-76
2022/01/19 05:18:05;;;;;;;17.65;9.68;;;9.20;90.90;;;;;;4935751;29;20122;-74
2022/01/19 05:20:31;;;;;;;17.73;9.95;;;9.20;90.90;;;;;;4940862;28;20038;-76
2022/01/19 05:22:57;;;;;;;14.90;8.88;;;9.10;90.80;;;;;;4971293;28;20844;-74
2022/01/19 05:25:22;;;;;;;18.23;9.60;;;9.10;90.80;;;;;;4954406;28;20034;-76
2022/01/19 05:27:48;;;;;;;14.75;8.85;;;9.20;90.70;;;;;;4971680;28;20034;-76
2022/01/19 05:30:17;;;;;;;14.70;8.63;;;9.10;90.70;;;;;;4971508;28;20037;-76
2022/01/19 05:32:43;;;;;;;14.10;8.60;;;9.10;90.70;;;;;;4957546;28;20042;-77
2022/01/19 05:35:09;;;;;;;14.27;8.90;;;9.10;90.70;;;;;;4954089;28;20122;-76
2022/01/19 05:37:36;;;;;;;15.27;8.73;;;9.10;90.70;;;;;;4961364;28;20110;-73
2022/01/19 05:40:10;;;;;;;13.80;8.48;;;9.10;90.70;;;;;;4965078;28;20027;-76
2022/01/19 05:42:37;;;;;;;14.93;8.70;;;9.20;90.70;;;;;;4970460;28;20060;-74
2022/01/19 05:45:03;;;;;;;13.57;8.02;;;9.10;90.60;;;;;;4970339;28;20031;-76
2022/01/19 05:47:29;;;;;;;16.33;9.27;;;9.10;90.50;;;;;;4971668;28;20045;-79
2022/01/19 05:49:54;;;;;;;12.88;8.00;;;9.10;90.50;;;;;;4954900;28;20039;-77
2022/01/19 05:52:20;;;;;;;14.63;7.95;;;9.00;86.90;;;;;;4954912;28;20022;-75
2022/01/19 05:54:46;;;;;;;14.48;8.02;;;8.90;85.20;;;;;;4971603;28;20019;-74
2022/01/19 05:57:12;;;;;;;15.02;7.45;;;8.90;86.00;;;;;;4954314;28;20033;-76
2022/01/19 05:59:38;;;;;;;13.90;7.90;;;8.90;86.90;;;;;;4971931;28;20058;-75
2022/01/19 06:02:03;;;;;;;12.77;7.47;;;8.90;87.90;;;;;;4971899;28;20066;-77
2022/01/19 06:04:29;;;;;;;14.20;8.20;;;9.00;88.40;;;;;;4972404;28;20033;-77
2022/01/19 06:06:56;;;;;;;14.20;8.00;;;9.00;88.80;;;;;;4970557;28;20034;-79
2022/01/19 06:09:34;;;;;;;14.50;7.75;;;9.00;89.00;;;;;;4971386;28;20081;-77
2022/01/19 06:12:06;;;;;;;13.65;8.27;;;9.00;89.20;;;;;;4971305;28;20038;-75
2022/01/19 06:14:34;;;;;;;15.13;8.82;;;9.10;89.30;;;;;;4970667;28;20058;-75
2022/01/19 06:17:00;;;;;;;15.27;8.13;;;9.10;89.40;;;;;;4970911;28;20027;-77
2022/01/19 06:19:26;;;;;;;13.50;8.15;;;9.10;89.60;;;;;;4970358;28;20030;-78
2022/01/19 06:21:51;;;;;;;15.48;8.43;;;9.10;89.60;;;;;;4970508;28;20038;-77
2022/01/19 06:24:17;;;;;;;11.57;7.72;;;9.10;89.70;;;;;;4970724;28;20035;-76
2022/01/19 06:26:43;;;;;;;15.13;8.10;;;9.10;89.80;;;;;;4969852;28;20088;-75
2022/01/19 06:29:08;;;;;;;18.08;8.23;;;9.10;89.80;;;;;;4968726;28;20133;-77
2022/01/19 06:31:34;;;;;;;16.63;8.45;;;9.10;88.90;;;;;;4968319;28;20026;-77
2022/01/19 06:33:59;;;;;;;17.25;8.50;;;9.10;87.90;;;;;;4968616;28;20023;-78
2022/01/19 06:36:25;;;;;;;15.85;9.00;;;9.10;89.00;;;;;;4968743;28;20085;-76
2022/01/19 06:38:51;;;;;;;16.40;8.88;;;9.10;88.80;;;;;;4968178;28;20046;-78
2022/01/19 06:41:17;;;;;;;15.70;8.18;;;9.10;88.90;;;;;;4968090;28;20401;-75
2022/01/19 06:43:42;;;;;;;15.25;8.88;;;9.10;89.10;;;;;;4968209;28;20026;-76
2022/01/19 06:46:08;;;;;;;14.57;8.30;;;9.10;89.10;;;;;;4968462;28;20125;-77
2022/01/19 06:48:33;;;;;;;15.68;8.32;;;9.10;89.10;;;;;;4969668;28;20098;-77
2022/01/19 06:50:59;;;;;;;19.65;9.65;;;9.00;89.20;;;;;;4968347;28;20084;-80
2022/01/19 06:53:26;;;;;;;18.25;8.48;;;9.10;89.20;;;;;;4968626;28;20166;-76
2022/01/19 06:55:51;;;;;;;14.95;8.30;;;9.10;89.20;;;;;;4969178;28;20220;-77
2022/01/19 06:58:17;;;;;;;12.65;8.50;;;9.10;89.20;;;;;;4968270;28;20105;-79
2022/01/19 07:00:42;;;;;;;13.30;8.07;;;9.10;89.10;;;;;;4969622;28;20121;-77
2022/01/19 07:03:09;;;;;;;14.25;8.18;;;9.10;89.20;;;;;;4968439;28;20085;-76
2022/01/19 07:05:34;;;;;;;12.43;8.73;;;9.10;89.20;;;;;;4969887;28;20023;-78
2022/01/19 07:08:00;;;;;;;13.52;8.55;;;9.10;89.20;;;;;;4968090;28;20545;-78
2022/01/19 07:10:31;;;;;;;13.48;8.25;;;9.10;89.20;;;;;;4968654;28;20035;-77
2022/01/19 07:12:57;;;;;;;15.10;8.77;;;9.10;89.30;;;;;;4969586;28;20077;-77
2022/01/19 07:15:23;;;;;;;13.90;8.20;;;9.10;89.30;;;;;;4968367;28;20026;-76
2022/01/19 07:17:48;;;;;;;16.58;8.85;;;9.10;89.30;;;;;;4969920;28;20037;-78
2022/01/19 07:20:14;;;;;;;13.02;8.43;;;9.10;89.30;;;;;;4969502;28;20042;-79
2022/01/19 07:22:39;;;;;;;13.88;8.35;;;9.10;89.30;;;;;;4968242;28;20106;-78
2022/01/19 07:25:05;;;;;;;11.40;7.72;;;9.10;89.40;;;;;;4968321;28;20410;-77
2022/01/19 07:27:31;;;;;;;12.77;8.55;;;9.10;89.30;;;;;;4968049;28;20046;-78
2022/01/19 07:29:57;;;;;;;12.52;8.10;;;9.10;89.40;;;;;;4969404;28;20035;-76
2022/01/19 07:32:24;;;;;;;12.02;7.95;;;9.10;89.40;;;;;;4968022;28;20113;-76
2022/01/19 07:34:50;;;;;;;13.10;8.27;;;9.10;89.40;;;;;;4968843;28;20125;-77
2022/01/19 07:37:15;;;;;;;12.27;8.57;;;9.10;89.40;;;;;;4971622;28;20121;-80
2022/01/19 07:39:41;;;;;;;12.18;7.82;;;9.10;89.40;;;;;;4971762;28;20038;-76
2022/01/19 07:42:07;;;;;;;11.40;8.07;;;9.10;89.50;;;;;;4970970;28;20070;-76
2022/01/19 07:44:32;;;;;;;13.45;8.55;;;9.10;89.50;;;;;;4971853;28;20039;-77
2022/01/19 07:46:58;;;;;;;11.18;8.18;;;9.10;89.40;;;;;;4972557;28;20035;-77
2022/01/19 07:49:23;;;;;;;11.40;7.65;;;9.10;89.40;;;;;;4971586;28;20429;-76
2022/01/19 07:51:49;;;;;;;11.68;8.45;;;9.10;89.40;;;;;;4972197;28;20494;-76
2022/01/19 07:54:14;;;;;;;12.10;7.90;;;9.10;89.30;;;;;;4972548;28;20109;-77
2022/01/19 07:56:40;;;;;;;12.48;8.88;;;9.10;89.20;;;;;;4971362;28;20512;-79
2022/01/19 07:59:06;;;;;;;10.50;7.57;;;9.10;89.60;;;;;;4971446;28;20030;-76
2022/01/19 08:01:31;;;;;;;12.13;7.90;;;9.10;89.00;;;;;;4971291;28;20034;-76
2022/01/19 08:03:58;;;;;;;12.63;8.82;;;9.10;88.90;;;;;;4971196;28;20023;-78
2022/01/19 08:06:24;;;;;;;10.93;7.80;;;9.10;88.90;;;;;;4971273;28;20027;-75
2022/01/19 08:08:50;;;;;;;12.20;8.15;;;9.10;88.80;;;;;;4971009;28;20078;-75
2022/01/19 08:11:16;;;;;;;11.35;8.05;;;9.10;88.80;;;;;;4972145;28;20411;-76
2022/01/19 08:13:41;;;;;;;10.77;8.00;;;9.10;88.60;;;;;;4971207;28;20027;-77
2022/01/19 08:16:07;;;;;;;10.80;8.10;;;9.10;88.60;;;;;;4971268;28;20490;-76
2022/01/19 08:18:33;;;;;;;10.63;8.43;;;9.00;88.60;;;;;;4970829;28;20081;-77
2022/01/19 08:20:58;;;;;;;11.00;8.25;;;9.10;88.60;;;;;;4971867;28;20387;-77
2022/01/19 08:23:24;;;;;;;10.23;7.57;;;9.10;88.60;;;;;;4971837;28;20033;-77
2022/01/19 08:25:49;;;;;;;11.15;8.40;;;9.00;88.50;;;;;;4970910;28;20363;-76
2022/01/19 08:28:15;;;;;;;10.70;8.35;;;9.00;88.40;;;;;;4972123;28;20038;-75
2022/01/19 08:30:40;;;;;;;10.98;8.20;;;9.00;88.40;;;;;;4971827;28;20022;-75
2022/01/19 08:33:06;;;;;;;10.35;8.20;;;9.10;88.40;;;;;;4970740;28;20118;-75
2022/01/19 08:35:32;;;;;;;10.40;8.15;;;9.10;88.40;;;;;;4971951;28;20038;-76
2022/01/19 08:37:57;;;;;;;10.70;8.70;;;9.10;88.20;;;;;;4970240;28;20436;-78
2022/01/19 08:40:28;;;;;;;10.90;8.48;;;9.10;88.20;;;;;;4971825;28;20041;-76
2022/01/19 08:42:54;;;;;;;10.82;9.15;;;9.10;88.10;;;;;;4971266;28;20026;-77
2022/01/19 08:45:20;;;;;;;11.32;9.63;;;9.10;88.10;;;;;;4970680;28;20502;-76
2022/01/19 08:47:46;;;;;;;11.43;9.00;;;9.10;88.10;;;;;;4969514;28;20041;-77
2022/01/19 08:50:14;;;;;;;13.40;10.10;;;9.10;88.70;;;;;;4971588;28;20065;-76
2022/01/19 08:52:39;;;;;;;11.95;9.77;;;9.00;88.10;;;;;;4970061;28;20434;-77
2022/01/19 08:55:06;;;;;;;11.90;9.90;;;9.10;88.10;;;;;;4969666;28;20023;-76
2022/01/19 08:57:31;;;;;;;11.95;10.07;;;9.10;87.90;;;;;;4970548;28;20133;-78
2022/01/19 08:59:57;;;;;;;12.05;10.20;;;9.10;87.90;;;;;;4970296;28;20146;-76
2022/01/19 09:02:23;;;;;;;11.93;10.40;;;9.10;87.90;;;;;;4971342;28;20041;-78
2022/01/19 09:04:49;;;;;;;12.77;10.50;;;9.10;87.70;;;;;;4970268;28;20030;-79
2022/01/19 09:07:14;;;;;;;12.50;10.77;;;9.00;87.70;;;;;;4971011;28;20035;-79
2022/01/19 09:09:40;;;;;;;12.70;10.85;;;9.10;87.90;;;;;;4971284;28;20525;-77
2022/01/19 09:12:06;;;;;;;12.27;10.98;;;9.00;87.60;;;;;;4970930;28;20073;-77
2022/01/19 09:14:31;;;;;;;11.88;10.43;;;9.10;87.60;;;;;;4970252;28;20074;-77
2022/01/19 09:16:58;;;;;;;12.48;11.15;;;9.10;87.60;;;;;;4970765;28;20041;-76
2022/01/19 09:19:23;;;;;;;12.93;11.55;;;9.10;87.60;;;;;;4970052;28;20038;-77
2022/01/19 09:21:50;;;;;;;12.65;10.70;;;9.10;87.60;;;;;;4969529;28;20035;-77
2022/01/19 09:24:16;;;;;;;13.38;11.23;;;9.10;87.60;;;;;;4971056;28;20058;-76
2022/01/19 09:26:43;;;;;;;13.30;11.15;;;9.10;87.60;;;;;;4969555;28;20031;-76
2022/01/19 09:29:09;;;;;;;12.35;11.00;;;9.10;87.60;;;;;;4969656;28;20089;-78
2022/01/19 09:31:35;;;;;;;12.38;11.05;;;9.10;87.70;;;;;;4969237;28;20027;-76
2022/01/19 09:34:14;;;;;;;12.00;10.70;;;9.00;87.50;;;;;;4969407;28;20027;-76
2022/01/19 09:36:46;;;;;;;12.80;11.18;;;9.10;87.50;;;;;;4969392;28;20056;-76
2022/01/19 09:39:19;;;;;;;13.30;11.60;;;9.10;87.60;;;;;;4970805;28;20514;-77
2022/01/19 09:41:46;;;;;;;12.60;11.30;;;9.10;87.60;;;;;;4970280;28;20031;-79
2022/01/19 09:44:13;;;;;;;12.07;10.80;;;9.10;87.50;;;;;;4970347;28;20023;-77
2022/01/19 09:46:38;;;;;;;11.77;10.43;;;9.10;87.50;;;;;;4969068;28;20054;-77
2022/01/19 09:49:07;;;;;;;12.05;10.75;;;9.10;87.50;;;;;;4970394;28;20034;-76
2022/01/19 09:51:33;;;;;;;12.13;10.77;;;9.10;87.50;;;;;;4969103;28;20023;-76
2022/01/19 09:53:58;;;;;;;12.50;11.20;;;9.10;87.50;;;;;;4969140;28;20034;-78
2022/01/19 09:56:24;;;;;;;12.15;10.85;;;9.00;87.50;;;;;;4969055;28;20030;-76
2022/01/19 09:58:50;;;;;;;11.98;10.68;;;9.10;87.60;;;;;;4968899;28;20117;-77
2022/01/19 10:01:23;;;;;;;11.60;10.40;;;9.10;87.70;;;;;;4970216;28;20059;-76
2022/01/19 10:03:50;;;;;;;11.60;10.30;;;9.00;87.70;;;;;;4969043;28;20495;-76
2022/01/19 10:06:23;;;;;;;12.25;10.75;;;9.10;87.80;;;;;;4968813;28;20039;-75
2022/01/19 10:08:54;;;;;;;12.70;10.93;;;9.10;87.70;;;;;;4968798;28;20764;-78
2022/01/19 10:17:02;;;;;;;12.10;10.80;;;9.10;87.50;;;;;;4969511;28;20061;-76
2022/01/19 10:19:38;;;;;;;12.18;10.40;;;9.10;87.50;;;;;;4968693;28;20113;-76
2022/01/19 10:22:06;;;;;;;11.98;10.68;;;9.10;87.50;;;;;;4970092;28;20027;-77
2022/01/19 10:24:52;;;;;;;12.13;10.70;;;9.10;87.60;;;;;;4968791;28;20472;-78
2022/01/19 10:27:20;;;;;;;11.73;10.52;;;9.10;87.50;;;;;;4968418;28;20146;-76
2022/01/19 10:29:47;;;;;;;11.43;10.23;;;9.10;87.50;;;;;;4970002;28;20061;-79
2022/01/19 10:32:14;;;;;;;11.13;10.02;;;9.10;87.40;;;;;;4969831;28;20246;-76
2022/01/19 10:34:39;;;;;;;11.82;10.40;;;9.10;87.40;;;;;;4969958;28;20019;-76
2022/01/19 10:37:05;;;;;;;12.07;10.38;;;9.10;87.40;;;;;;4968422;28;20034;-77
2022/01/19 10:39:45;;;;;;;11.18;9.98;;;9.10;87.40;;;;;;4968681;28;20166;-77
2022/01/19 10:42:16;;;;;;;11.40;10.20;;;9.10;87.30;;;;;;4968128;28;20034;-78
2022/01/19 10:44:55;;;;;;;11.88;10.13;;;9.10;87.30;;;;;;4969777;28;20030;-79
2022/01/19 10:47:39;;;;;;;10.75;9.63;;;9.10;87.20;;;;;;4969628;28;20063;-76
2022/01/19 10:50:06;;;;;;;10.65;9.48;;;9.10;87.20;;;;;;4969449;28;20114;-76
2022/01/19 10:52:40;;;;;;;11.50;9.98;;;9.10;87.10;;;;;;4969442;28;20510;-78
2022/01/19 10:55:11;;;;;;;11.80;10.25;;;9.10;87.00;;;;;;4968322;28;20041;-76
2022/01/19 10:57:40;;;;;;;10.88;9.77;;;9.10;87.00;;;;;;4968229;28;20067;-76
2022/01/19 11:00:16;;;;;;;11.18;9.75;;;9.10;87.00;;;;;;4968242;28;20542;-78
2022/01/19 11:02:43;;;;;;;11.27;9.43;;;9.10;86.90;;;;;;4969293;28;20031;-76
2022/01/19 11:05:09;;;;;;;10.95;9.80;;;9.10;86.90;;;;;;4968165;28;20363;-76
2022/01/19 11:07:34;;;;;;;11.48;10.05;;;9.10;86.90;;;;;;4968128;28;20034;-77
2022/01/19 11:10:09;;;;;;;12.10;10.30;;;9.10;86.80;;;;;;4970400;28;20397;-77
2022/01/19 11:12:40;;;;;;;12.15;10.68;;;9.10;86.80;;;;;;4972094;28;20026;-76
2022/01/19 11:15:09;;;;;;;;;;;9.10;86.80;;;;;;4972818;28;20489;-77
2022/01/19 11:17:36;;;;;;;11.50;10.30;;;9.10;86.70;;;;;;4972043;28;19910;-80
2022/01/19 11:20:07;;;;;;;12.32;11.02;;;9.10;86.80;;;;;;4973265;28;20089;-78
2022/01/19 11:22:35;;;;;;;13.07;11.32;;;9.10;86.70;;;;;;4973196;28;20081;-76
2022/01/19 11:25:04;;;;;;;12.40;10.98;;;9.00;86.60;;;;;;4973285;28;20165;-77
2022/01/19 11:27:56;;;;;;;12.77;11.40;;;9.10;86.60;;;;;;4971668;28;20042;-77
2022/01/19 11:30:25;;;;;;;13.13;11.60;;;9.10;86.50;;;;;;4971075;28;20046;-78
2022/01/19 11:33:16;;;;;;;13.05;11.65;;;9.10;86.50;;;;;;4973196;28;20034;-76
2022/01/19 11:35:46;;;;;;;13.15;11.70;;;9.00;86.40;;;;;;4949818;28;20122;-77
2022/01/19 11:38:37;;;;;;;13.80;12.25;;;9.10;86.40;;;;;;4972766;28;20053;-77
2022/01/19 11:41:09;;;;;;;14.68;12.25;;;9.00;86.30;;;;;;4971585;28;20023;-77
2022/01/19 11:43:47;;;;;;;14.80;12.63;;;9.10;86.30;;;;;;4972763;28;20049;-77
2022/01/19 11:46:27;;;;;;;13.70;12.20;;;9.10;86.30;;;;;;4971867;28;20041;-77
2022/01/19 11:48:52;;;;;;;14.23;12.73;;;9.10;86.40;;;;;;4971508;28;20037;-78
2022/01/19 11:51:31;;;;;;;15.43;13.43;;;9.00;86.20;;;;;;4971210;28;20046;-77
2022/01/19 11:54:01;;;;;;;16.35;13.15;;;9.10;86.20;;;;;;4971584;28;20027;-76
2022/01/19 11:56:28;;;;;;;15.45;13.63;;;9.00;86.10;;;;;;4972621;28;20026;-78
2022/01/19 11:59:09;;;;;;;15.43;13.70;;;9.00;86.10;;;;;;4971358;28;20493;-75
2022/01/19 12:01:36;;;;;;;;;;;9.10;86.20;;;;;;4971502;28;20023;-76
2022/01/19 12:04:14;;;;;;;20.92;14.40;;;9.00;86.10;;;;;;4971464;28;19956;-77
2022/01/19 12:06:42;;;;;;;17.85;15.30;;;9.00;86.10;;;;;;4972457;28;20019;-76
2022/01/19 12:09:10;;;;;;;17.45;14.55;;;9.00;86.00;;;;;;4971063;28;20024;-76
2022/01/19 12:11:37;;;;;;;17.42;15.13;;;9.10;86.00;;;;;;4971008;28;20050;-76
2022/01/19 12:17:04;;;;;;;18.63;15.68;;;9.00;85.90;;;;;;4959571;28;20033;-77
2022/01/19 12:19:41;;;;;;;18.63;15.27;;;9.00;85.80;;;;;;4970534;28;20038;-77
2022/01/19 12:22:19;;;;;;;18.33;15.50;;;9.00;85.90;;;;;;4969307;28;20835;-76
2022/01/19 12:24:56;;;;;;;19.30;16.17;;;9.00;85.80;;;;;;4971087;28;20034;-76
2022/01/19 12:27:26;;;;;;;20.70;15.95;;;9.00;85.80;;;;;;4972149;28;20512;-77
2022/01/19 12:30:06;;;;;;;19.88;16.02;;;9.10;85.90;;;;;;4972074;28;20037;-77
2022/01/19 12:32:35;;;;;;;20.75;15.65;;;9.00;85.90;;;;;;4970598;28;20078;-77
2022/01/19 12:35:04;;;;;;;20.23;16.45;;;9.10;86.00;;;;;;4971914;28;20151;-77
2022/01/19 12:37:35;;;;;;;20.25;16.38;;;9.10;86.00;;;;;;4970316;28;20125;-77
2022/01/19 12:40:05;;;;;;;20.48;16.75;;;9.00;86.10;;;;;;4970502;28;20130;-80
2022/01/19 12:42:42;;;;;;;20.63;16.73;;;9.00;86.00;;;;;;4970127;28;20042;-78
2022/01/19 12:45:16;;;;;;;21.05;17.00;;;9.00;86.00;;;;;;4970729;28;20118;-76
2022/01/19 12:47:43;;;;;;;21.23;16.65;;;9.00;86.00;;;;;;4970501;28;20081;-78
2022/01/19 12:50:08;;;;;;;24.95;17.63;;;9.00;86.00;;;;;;4971826;28;20027;-75
2022/01/19 12:52:46;;;;;;;21.13;16.83;;;9.00;85.90;;;;;;4970104;28;20022;-77
2022/01/19 12:55:22;;;;;;;21.02;17.13;;;9.00;86.00;;;;;;4971942;28;20027;-76
2022/01/19 12:57:48;;;;;;;20.38;16.52;;;9.10;85.90;;;;;;4970291;28;20097;-76
2022/01/19 13:00:18;;;;;;;20.92;17.55;;;9.00;85.90;;;;;;4970265;28;20613;-77
2022/01/19 13:02:44;;;;;;;21.17;16.00;;;9.00;85.90;;;;;;4970056;28;20062;-76
2022/01/19 13:05:17;;;;;;;21.90;16.52;;;9.00;85.90;;;;;;4970009;28;20030;-76
2022/01/19 13:07:45;;;;;;;20.70;16.70;;;9.00;85.80;;;;;;4971179;28;20026;-77
2022/01/19 13:12:58;;;;;;;20.05;15.50;;;9.00;85.80;;;;;;4971348;28;20059;-78
2022/01/19 13:15:40;;;;;;;21.05;16.20;;;9.00;85.80;;;;;;4970328;28;20023;-77
2022/01/19 13:18:06;;;;;;;21.65;17.02;;;9.10;85.80;;;;;;4969921;28;20027;-76
2022/01/19 13:20:32;;;;;;;21.13;16.65;;;9.00;85.90;;;;;;4969737;28;20347;-75
2022/01/19 13:22:58;;;;;;;20.35;15.95;;;9.00;85.80;;;;;;4969720;28;20191;-79
2022/01/19 13:25:29;;;;;;;19.83;15.55;;;9.00;85.70;;;;;;4971155;28;20062;-76
2022/01/19 13:27:57;;;;;;;21.60;16.27;;;9.00;85.80;;;;;;4969381;28;20121;-77
2022/01/19 13:30:26;;;;;;;21.17;15.98;;;9.00;85.80;;;;;;4969790;28;20033;-77
2022/01/19 13:32:52;;;;;;;20.92;15.85;;;9.00;85.70;;;;;;4969369;28;20502;-77
2022/01/19 13:35:20;;;;;;;20.50;16.17;;;9.00;85.80;;;;;;4970606;28;20126;-77
2022/01/19 13:37:58;;;;;;;18.77;15.38;;;9.00;85.70;;;;;;4969633;28;20035;-76
2022/01/19 13:40:33;;;;;;;19.40;15.38;;;9.00;85.70;;;;;;4969800;28;20027;-76
2022/01/19 13:43:04;;;;;;;19.02;15.63;;;9.00;85.80;;;;;;4970543;28;20085;-77
2022/01/19 13:45:38;;;;;;;21.65;16.27;;;9.00;85.70;;;;;;4970000;28;20401;-78
2022/01/19 13:48:28;;;;;;;20.63;16.38;;;9.00;85.70;;;;;;4969617;28;20035;-77
2022/01/19 13:51:04;;;;;;;;;;;9.00;85.70;;;;;;4969537;28;20670;-78
2022/01/19 13:53:33;;;;;;;20.50;16.33;;;9.00;85.80;;;;;;4969413;28;19906;-77
2022/01/19 13:56:00;;;;;;;19.92;15.82;;;9.00;85.70;;;;;;4970584;28;20034;-78
2022/01/19 13:58:32;;;;;;;22.80;17.50;;;9.00;85.70;;;;;;4970414;28;20030;-77
2022/01/19 14:00:59;;;;;;;;;;;9.00;85.70;;;;;;4970662;28;20089;-76
2022/01/19 14:03:45;;;;;;;20.65;16.13;;;9.00;85.70;;;;;;4970299;28;19949;-76
2022/01/19 14:06:29;;;;;;;21.02;16.88;;;9.00;85.80;;;;;;4970380;28;20030;-78
2022/01/19 14:09:15;;;;;;;21.85;16.77;;;9.00;85.80;;;;;;4968851;28;20118;-80
2022/01/19 14:11:44;;;;;;;22.35;16.98;;;9.00;85.90;;;;;;4969133;28;20478;-76
2022/01/19 14:14:24;;;;;;;19.98;15.93;;;9.00;85.90;;;;;;4970409;28;20034;-77
2022/01/19 14:16:50;;;;;;;20.60;16.75;;;9.00;86.00;;;;;;4968978;28;20050;-76
2022/01/19 14:19:21;;;;;;;20.58;16.40;;;9.00;86.00;;;;;;4968881;28;20031;-79